Time;durP1;ratioP1;P1;durP2;ratioP2;P2;SDS_P1;SDS_P2;PMS_P1;PMS_P2;Temp;Humidity;BMP_temperature;BMP_pressure;BME280_temperature;BME280_humidity;BME280_pressure;Samples;Min_cycle;Max_cycle;Signal;HPM_P1;HPM_P2
2024/02/01 00:02:25;;;;;;;7.00;5.03;;;7.80;99.90;;;;;;5078269;28;20460;-82
2024/02/01 00:04:53;;;;;;;6.50;4.50;;;7.80;99.90;;;;;;5079167;28;20452;-81
2024/02/01 00:07:20;;;;;;;8.57;5.40;;;7.80;99.90;;;;;;5078201;28;20463;-82
2024/02/01 00:09:48;;;;;;;7.93;5.03;;;7.80;99.90;;;;;;5079026;28;20998;-83
2024/02/01 00:12:15;;;;;;;7.80;5.10;;;7.80;99.90;;;;;;5075754;28;21032;-82
2024/02/01 00:14:42;;;;;;;7.17;4.83;;;7.80;99.90;;;;;;5079086;28;20487;-83
2024/02/01 00:17:08;;;;;;;6.80;4.30;;;7.90;99.90;;;;;;5077590;28;20489;-84
2024/02/01 00:19:35;;;;;;;6.67;4.90;;;7.90;99.90;;;;;;5079571;28;20479;-83
2024/02/01 00:22:04;;;;;;;8.23;5.00;;;7.90;99.90;;;;;;5081660;28;20456;-82
2024/02/01 00:24:30;;;;;;;5.87;4.50;;;8.00;99.90;;;;;;5083462;28;20463;-82
2024/02/01 00:26:57;;;;;;;7.97;5.73;;;8.00;99.90;;;;;;5085303;28;20444;-83
2024/02/01 00:29:24;;;;;;;11.70;5.87;;;8.00;99.90;;;;;;5087369;28;20456;-82
2024/02/01 00:31:51;;;;;;;8.10;5.30;;;8.00;99.90;;;;;;5087927;28;20940;-83
2024/02/01 00:34:18;;;;;;;11.53;5.67;;;8.00;99.90;;;;;;5087999;28;20457;-82
2024/02/01 00:36:45;;;;;;;9.90;6.63;;;8.00;99.90;;;;;;5085778;28;20535;-83
2024/02/01 00:39:13;;;;;;;7.83;5.33;;;8.00;99.90;;;;;;5087557;28;20905;-83
2024/02/01 00:41:40;;;;;;;14.83;6.57;;;8.00;99.90;;;;;;5080798;28;20471;-83
2024/02/01 00:44:07;;;;;;;8.50;5.73;;;8.10;99.90;;;;;;5089847;28;20516;-83
2024/02/01 00:46:33;;;;;;;11.47;6.60;;;8.00;99.90;;;;;;5088908;28;20475;-82
2024/02/01 00:49:00;;;;;;;9.20;6.30;;;7.90;99.90;;;;;;5095059;28;20542;-82
2024/02/01 00:51:27;;;;;;;8.50;6.80;;;7.80;99.90;;;;;;5092417;28;20457;-84
2024/02/01 00:53:54;;;;;;;12.53;8.30;;;7.70;99.90;;;;;;5091125;28;20466;-83
2024/02/01 00:56:22;;;;;;;13.10;7.63;;;7.70;99.90;;;;;;5093239;28;20521;-87
2024/02/01 00:58:49;;;;;;;9.50;7.63;;;7.60;99.90;;;;;;5101164;28;20493;-80
2024/02/01 01:01:15;;;;;;;14.17;8.20;;;7.60;99.90;;;;;;5093637;28;20471;-80
2024/02/01 01:03:42;;;;;;;15.30;9.73;;;7.60;99.90;;;;;;5091842;28;20476;-82
2024/02/01 01:06:09;;;;;;;16.63;8.37;;;7.60;99.90;;;;;;5079357;28;20454;-83
2024/02/01 01:08:36;;;;;;;15.93;8.87;;;7.50;99.90;;;;;;5087402;28;20536;-83
2024/02/01 01:11:03;;;;;;;19.40;8.70;;;7.50;99.90;;;;;;5086424;28;20455;-83
2024/02/01 01:13:32;;;;;;;23.30;10.23;;;7.50;99.90;;;;;;5077382;28;20535;-83
2024/02/01 01:15:58;;;;;;;17.37;9.27;;;7.50;99.90;;;;;;5077001;28;20523;-83
2024/02/01 01:18:25;;;;;;;19.60;9.60;;;7.60;99.90;;;;;;5085258;28;20482;-83
2024/02/01 01:20:52;;;;;;;15.77;11.20;;;7.50;99.90;;;;;;5086459;28;20515;-84
2024/02/01 01:23:19;;;;;;;17.83;12.17;;;7.60;99.90;;;;;;5084735;28;20482;-83
2024/02/01 01:25:46;;;;;;;13.00;10.43;;;7.60;99.90;;;;;;5085157;28;20456;-84
2024/02/01 01:28:13;;;;;;;22.60;11.77;;;7.60;99.90;;;;;;5086015;28;20513;-82
2024/02/01 01:30:41;;;;;;;14.77;11.33;;;7.60;99.90;;;;;;5078152;28;20515;-80
2024/02/01 01:33:07;;;;;;;17.70;10.63;;;7.60;99.90;;;;;;5087951;28;21227;-82
2024/02/01 01:35:34;;;;;;;15.50;11.00;;;7.70;99.90;;;;;;5080277;28;20464;-81
2024/02/01 01:38:01;;;;;;;12.87;10.60;;;7.70;99.90;;;;;;5080208;28;20549;-82
2024/02/01 01:40:28;;;;;;;14.37;9.97;;;7.70;99.90;;;;;;5074953;28;20521;-82
2024/02/01 01:42:57;;;;;;;12.37;10.10;;;7.70;99.90;;;;;;5076785;28;20532;-81
2024/02/01 01:45:24;;;;;;;16.00;9.80;;;7.70;99.90;;;;;;5074230;28;20468;-82
2024/02/01 01:47:52;;;;;;;18.63;11.57;;;7.70;99.90;;;;;;5066862;28;21001;-81
2024/02/01 01:50:20;;;;;;;11.53;8.93;;;7.70;99.90;;;;;;5066145;28;20856;-82
2024/02/01 01:52:50;;;;;;;15.30;11.27;;;7.70;99.90;;;;;;5073821;28;20487;-82
2024/02/01 01:55:18;;;;;;;15.53;11.13;;;7.70;99.90;;;;;;5073951;28;20544;-82
2024/02/01 01:57:45;;;;;;;22.20;12.60;;;7.70;99.90;;;;;;5074153;28;20516;-83
2024/02/01 02:00:14;;;;;;;19.60;11.10;;;7.70;99.90;;;;;;5074390;28;20508;-81
2024/02/01 02:02:41;;;;;;;18.00;11.10;;;7.70;99.90;;;;;;5066872;28;20510;-82
2024/02/01 02:05:09;;;;;;;16.40;11.40;;;7.70;99.90;;;;;;5073669;28;20520;-82
2024/02/01 02:07:38;;;;;;;24.17;12.50;;;7.70;99.90;;;;;;5067936;28;20843;-80
2024/02/01 02:10:06;;;;;;;20.90;13.27;;;7.70;99.90;;;;;;5073810;28;20452;-82
2024/02/01 02:12:33;;;;;;;18.63;12.03;;;7.70;99.90;;;;;;5073580;28;20579;-83
2024/02/01 02:15:01;;;;;;;21.03;15.07;;;7.80;99.90;;;;;;5065414;28;20547;-80
2024/02/01 02:17:28;;;;;;;16.07;12.53;;;7.80;99.90;;;;;;5072949;28;20464;-82
2024/02/01 02:19:55;;;;;;;18.57;13.20;;;7.80;99.90;;;;;;5074106;28;20562;-82
2024/02/01 02:22:24;;;;;;;17.70;13.47;;;7.90;99.90;;;;;;5074531;28;20452;-81
2024/02/01 02:24:51;;;;;;;17.43;12.87;;;7.90;99.90;;;;;;5074208;28;21085;-81
2024/02/01 02:27:20;;;;;;;24.70;14.80;;;7.80;99.90;;;;;;5074269;28;20483;-81
2024/02/01 02:29:47;;;;;;;20.50;14.33;;;7.80;99.90;;;;;;5073478;28;20476;-81
2024/02/01 02:32:14;;;;;;;15.93;14.17;;;7.90;99.90;;;;;;5070128;28;20587;-81
2024/02/01 02:34:41;;;;;;;16.73;14.90;;;7.80;99.90;;;;;;5068092;28;20448;-81
2024/02/01 02:37:08;;;;;;;21.97;14.73;;;7.80;99.90;;;;;;5088617;28;20453;-84
2024/02/01 02:39:37;;;;;;;17.57;14.37;;;7.90;99.90;;;;;;5088667;28;20863;-81
2024/02/01 02:42:04;;;;;;;21.23;14.60;;;7.90;99.90;;;;;;5089004;28;20456;-82
2024/02/01 02:44:31;;;;;;;18.17;14.07;;;8.00;99.90;;;;;;5089229;28;20449;-82
2024/02/01 02:46:58;;;;;;;18.10;14.70;;;8.00;99.90;;;;;;5088985;28;20486;-83
2024/02/01 02:49:25;;;;;;;18.10;14.37;;;8.00;99.90;;;;;;5085111;28;20512;-82
2024/02/01 02:51:52;;;;;;;20.90;14.17;;;8.00;99.90;;;;;;5083192;28;20457;-84
2024/02/01 02:54:18;;;;;;;23.70;13.07;;;8.00;99.90;;;;;;5080879;28;20882;-84
2024/02/01 02:56:47;;;;;;;15.80;11.60;;;8.00;99.90;;;;;;5070022;28;20539;-82
2024/02/01 02:59:14;;;;;;;16.40;12.10;;;8.00;99.90;;;;;;5078735;28;20523;-81
2024/02/01 03:01:42;;;;;;;15.10;11.53;;;8.10;99.90;;;;;;5073837;28;20959;-82
2024/02/01 03:04:09;;;;;;;14.70;12.53;;;8.10;99.90;;;;;;5068893;28;20455;-81
2024/02/01 03:06:35;;;;;;;15.57;12.40;;;8.10;99.90;;;;;;5077893;28;20533;-82
2024/02/01 03:09:02;;;;;;;13.53;10.77;;;8.10;99.90;;;;;;5070538;28;20490;-83
2024/02/01 03:11:29;;;;;;;11.67;10.47;;;8.10;99.90;;;;;;5077482;28;20458;-83
2024/02/01 03:13:57;;;;;;;14.47;11.40;;;8.10;99.90;;;;;;5083618;28;20488;-82
2024/02/01 03:16:24;;;;;;;12.50;11.17;;;8.10;99.90;;;;;;5085403;28;20468;-85
2024/02/01 03:18:52;;;;;;;17.20;12.57;;;8.10;99.90;;;;;;5093038;28;20490;-83
2024/02/01 03:21:19;;;;;;;15.03;13.00;;;8.00;99.90;;;;;;5084358;28;20539;-83
2024/02/01 03:23:48;;;;;;;17.50;12.20;;;8.00;99.90;;;;;;5076434;28;20487;-85
2024/02/01 03:26:17;;;;;;;16.93;13.70;;;8.10;99.90;;;;;;5083579;28;20458;-85
2024/02/01 03:28:47;;;;;;;14.37;11.67;;;8.10;99.90;;;;;;5074997;28;20485;-85
2024/02/01 03:31:15;;;;;;;13.70;12.27;;;8.10;99.90;;;;;;5082610;28;20467;-83
2024/02/01 03:33:44;;;;;;;16.43;13.50;;;8.20;99.90;;;;;;5079292;28;20511;-82
2024/02/01 03:36:12;;;;;;;13.97;12.07;;;8.20;99.90;;;;;;5082801;28;20458;-83
2024/02/01 03:38:42;;;;;;;15.27;12.10;;;8.20;99.90;;;;;;5074480;28;20468;-84
2024/02/01 03:41:11;;;;;;;18.23;14.93;;;8.20;99.90;;;;;;5077611;28;20462;-84
2024/02/01 03:43:37;;;;;;;15.37;13.77;;;8.30;99.90;;;;;;5081430;28;20450;-83
2024/02/01 03:46:05;;;;;;;15.27;13.60;;;8.30;99.90;;;;;;5080665;28;21013;-82
2024/02/01 03:48:33;;;;;;;15.03;13.03;;;8.30;99.90;;;;;;5072255;28;20479;-86
2024/02/01 03:51:00;;;;;;;16.20;14.50;;;8.40;99.90;;;;;;5081462;28;20960;-82
2024/02/01 03:53:27;;;;;;;17.70;15.77;;;8.30;99.90;;;;;;5080644;28;20475;-82
2024/02/01 03:55:54;;;;;;;19.13;15.90;;;8.30;99.90;;;;;;5080943;28;20495;-83
2024/02/01 03:58:22;;;;;;;16.90;14.30;;;8.40;99.90;;;;;;5081403;28;20548;-84
2024/02/01 04:00:50;;;;;;;17.90;15.07;;;8.40;99.90;;;;;;5075729;28;20460;-81
2024/02/01 04:03:16;;;;;;;18.27;15.03;;;8.40;99.90;;;;;;5069884;28;20822;-84
2024/02/01 04:05:45;;;;;;;20.50;15.13;;;8.40;99.90;;;;;;5078653;28;20549;-83
2024/02/01 04:08:17;;;;;;;16.40;14.80;;;8.50;99.90;;;;;;5081176;28;20493;-83
2024/02/01 04:10:45;;;;;;;18.33;15.20;;;8.50;99.90;;;;;;5081669;28;20484;-83
2024/02/01 04:13:12;;;;;;;22.50;18.47;;;8.50;99.90;;;;;;5081051;28;20497;-85
2024/02/01 04:15:38;;;;;;;18.83;16.90;;;8.50;99.90;;;;;;5080929;28;20475;-83
2024/02/01 04:18:07;;;;;;;21.73;18.50;;;8.50;99.90;;;;;;5075766;28;20552;-83
2024/02/01 04:20:34;;;;;;;25.10;20.33;;;8.50;99.90;;;;;;5078159;28;20543;-84
2024/02/01 04:23:02;;;;;;;20.17;16.47;;;8.40;99.90;;;;;;5078585;28;20492;-82
2024/02/01 04:25:29;;;;;;;23.53;18.33;;;8.50;99.90;;;;;;5078769;28;20898;-84
2024/02/01 04:27:56;;;;;;;20.77;18.47;;;8.50;99.90;;;;;;5079228;28;21013;-84
2024/02/01 04:30:24;;;;;;;21.03;17.67;;;8.50;99.90;;;;;;5072544;28;20555;-84
2024/02/01 04:32:51;;;;;;;20.10;16.80;;;8.60;99.90;;;;;;5078495;28;20493;-84
2024/02/01 04:35:18;;;;;;;23.83;20.33;;;8.60;99.90;;;;;;5079258;28;20466;-83
2024/02/01 04:37:45;;;;;;;23.10;19.07;;;8.60;99.90;;;;;;5076969;28;20463;-84
2024/02/01 04:40:13;;;;;;;24.10;18.53;;;8.60;99.90;;;;;;5078418;28;20538;-82
2024/02/01 04:42:40;;;;;;;24.40;21.67;;;8.60;99.90;;;;;;5075644;28;20451;-82
2024/02/01 04:45:09;;;;;;;32.00;23.30;;;8.60;99.90;;;;;;5092696;28;20459;-83
2024/02/01 04:47:36;;;;;;;25.30;21.50;;;8.60;99.90;;;;;;5096032;28;20458;-83
2024/02/01 04:50:04;;;;;;;26.73;21.90;;;8.60;99.90;;;;;;5095760;28;20470;-79
2024/02/01 04:52:32;;;;;;;28.93;22.07;;;8.60;99.90;;;;;;5074924;28;20541;-81
2024/02/01 04:54:59;;;;;;;31.67;24.67;;;8.60;99.90;;;;;;5074873;28;20553;-83
2024/02/01 04:57:27;;;;;;;34.37;25.63;;;8.70;99.90;;;;;;5075837;28;20435;-82
2024/02/01 04:59:54;;;;;;;32.07;25.50;;;8.60;99.90;;;;;;5082550;28;20540;-83
2024/02/01 05:02:21;;;;;;;35.93;27.30;;;8.60;99.90;;;;;;5075897;28;20454;-83
2024/02/01 05:04:49;;;;;;;37.23;26.87;;;8.70;99.90;;;;;;5083725;28;20958;-81
2024/02/01 05:07:16;;;;;;;36.67;27.97;;;8.70;99.90;;;;;;5080305;28;20548;-81
2024/02/01 05:09:43;;;;;;;32.80;24.67;;;8.70;99.90;;;;;;5077082;28;20480;-82
2024/02/01 05:12:10;;;;;;;37.00;27.93;;;8.70;99.90;;;;;;5076427;28;20458;-82
2024/02/01 05:14:39;;;;;;;32.70;24.50;;;8.70;99.90;;;;;;5077694;28;20867;-80
2024/02/01 05:17:05;;;;;;;39.17;26.70;;;8.70;99.90;;;;;;5073809;28;20550;-82
2024/02/01 05:19:31;;;;;;;39.40;30.70;;;8.70;99.90;;;;;;5081037;28;20514;-83
2024/02/01 05:21:58;;;;;;;32.33;26.60;;;8.80;99.90;;;;;;5082048;28;20864;-82
2024/02/01 05:24:25;;;;;;;75.47;58.77;;;8.80;99.90;;;;;;5078063;28;20539;-81
2024/02/01 05:26:53;;;;;;;37.37;28.63;;;8.80;99.90;;;;;;5081697;28;20476;-82
2024/02/01 05:29:21;;;;;;;38.83;25.60;;;8.80;99.90;;;;;;5083864;28;20484;-82
2024/02/01 05:31:50;;;;;;;38.50;25.77;;;8.80;99.90;;;;;;5083119;28;20485;-81
2024/02/01 05:34:17;;;;;;;36.83;26.37;;;8.70;99.90;;;;;;5080201;28;20580;-81
2024/02/01 05:36:45;;;;;;;33.13;25.87;;;8.70;99.90;;;;;;5080097;28;20546;-81
2024/02/01 05:39:24;;;;;;;33.27;25.43;;;8.70;99.90;;;;;;5087129;28;20543;-80
2024/02/01 05:41:52;;;;;;;27.37;21.83;;;8.70;99.90;;;;;;5085203;28;20454;-82
2024/02/01 05:44:19;;;;;;;30.90;23.13;;;8.70;99.90;;;;;;5086374;28;20453;-81
2024/02/01 05:46:46;;;;;;;29.10;20.53;;;8.70;99.90;;;;;;5080713;28;20460;-83
2024/02/01 05:49:18;;;;;;;35.37;22.07;;;8.70;99.90;;;;;;5078464;28;20501;-82
2024/02/01 05:51:46;;;;;;;33.93;23.00;;;8.70;99.90;;;;;;5076445;28;20466;-82
2024/02/01 05:54:13;;;;;;;27.03;21.47;;;8.70;99.90;;;;;;5085066;28;20486;-81
2024/02/01 05:56:42;;;;;;;28.30;20.93;;;8.80;99.90;;;;;;5072245;28;20469;-83
2024/02/01 05:59:12;;;;;;;31.13;21.23;;;8.80;99.90;;;;;;5083768;28;20478;-81
2024/02/01 06:01:39;;;;;;;28.53;20.80;;;8.70;99.90;;;;;;5089708;28;20466;-80
2024/02/01 06:04:06;;;;;;;27.07;19.10;;;8.70;99.90;;;;;;5089771;28;20489;-83
2024/02/01 06:06:36;;;;;;;24.53;17.10;;;8.70;99.90;;;;;;5095261;28;20486;-81
2024/02/01 06:09:04;;;;;;;18.23;15.23;;;8.60;99.90;;;;;;5090251;28;20842;-83
2024/02/01 06:11:31;;;;;;;17.17;14.90;;;8.60;99.90;;;;;;5092325;28;20990;-80
2024/02/01 06:13:58;;;;;;;21.03;15.67;;;8.60;99.90;;;;;;5092694;28;20537;-80
2024/02/01 06:16:25;;;;;;;16.03;13.67;;;8.60;99.90;;;;;;5078265;28;20461;-82
2024/02/01 06:18:52;;;;;;;18.83;13.80;;;8.60;99.90;;;;;;5070691;28;20593;-81
2024/02/01 06:21:19;;;;;;;23.87;14.30;;;8.60;99.90;;;;;;5076515;28;20481;-82
2024/02/01 06:23:47;;;;;;;17.33;11.90;;;8.50;99.90;;;;;;5077952;28;20734;-81
2024/02/01 06:26:21;;;;;;;17.03;12.10;;;8.50;99.90;;;;;;5070515;28;20454;-79
2024/02/01 06:28:47;;;;;;;12.97;9.73;;;8.40;99.90;;;;;;5065043;28;20902;-80
2024/02/01 06:31:15;;;;;;;9.87;7.47;;;8.30;99.90;;;;;;5065915;28;20461;-81
2024/02/01 06:33:42;;;;;;;9.23;6.07;;;8.20;99.90;;;;;;5068786;28;20581;-82
2024/02/01 06:36:14;;;;;;;12.67;5.93;;;8.10;99.90;;;;;;5077156;28;20444;-82
2024/02/01 06:39:09;;;;;;;13.33;5.00;;;7.90;99.90;;;;;;5068781;28;20464;-82
2024/02/01 06:42:01;;;;;;;9.63;4.73;;;7.80;99.90;;;;;;5072306;28;20462;-84
2024/02/01 06:44:28;;;;;;;9.50;4.50;;;7.70;99.90;;;;;;5077248;28;20449;-81
2024/02/01 06:47:11;;;;;;;8.17;3.60;;;7.60;99.90;;;;;;5073283;28;20441;-81
2024/02/01 06:50:00;;;;;;;7.70;3.90;;;7.50;99.90;;;;;;5078078;28;20829;-80
2024/02/01 06:52:39;;;;;;;12.67;4.03;;;7.40;99.90;;;;;;5070997;28;20502;-83
2024/02/01 06:55:36;;;;;;;17.97;4.67;;;7.30;99.90;;;;;;5074295;28;20492;-84
2024/02/01 06:58:03;;;;;;;10.20;3.87;;;7.10;99.90;;;;;;5065520;28;20465;-81
2024/02/01 07:03:32;;;;;;;13.43;4.57;;;6.80;99.90;;;;;;5065726;28;20444;-83
2024/02/01 07:06:06;;;;;;;9.53;2.83;;;6.70;99.90;;;;;;5059796;28;20448;-81
2024/02/01 07:08:45;;;;;;;12.70;2.87;;;6.60;99.90;;;;;;5079544;28;20481;-83
2024/02/01 07:11:25;;;;;;;11.90;3.40;;;6.50;99.90;;;;;;5069332;28;20532;-82
2024/02/01 07:14:08;;;;;;;7.73;2.60;;;6.50;99.90;;;;;;5081178;28;20553;-81
2024/02/01 07:16:55;;;;;;;9.70;2.50;;;6.40;99.90;;;;;;5074667;28;20464;-83
2024/02/01 07:19:39;;;;;;;13.70;4.00;;;6.40;99.90;;;;;;5081062;28;20483;-83
2024/02/01 07:22:09;;;;;;;13.60;3.20;;;6.40;99.90;;;;;;5081391;28;20475;-82
2024/02/01 07:24:59;;;;;;;17.47;3.57;;;6.40;99.90;;;;;;5079647;28;20462;-81
2024/02/01 07:57:50;;;;;;;13.53;3.30;;;6.50;99.90;;;;;;5061641;28;20461;-80
2024/02/01 08:00:19;;;;;;;14.40;4.47;;;6.50;99.90;;;;;;5066746;28;20459;-82
2024/02/01 08:02:52;;;;;;;13.80;3.33;;;6.50;99.90;;;;;;5064981;28;20780;-82
2024/02/01 08:08:05;;;;;;;13.90;3.70;;;6.40;99.90;;;;;;5074580;28;20465;-85
2024/02/01 08:10:32;;;;;;;9.50;3.50;;;6.30;99.90;;;;;;5067445;28;20534;-82
2024/02/01 08:13:05;;;;;;;5.73;3.17;;;6.30;99.90;;;;;;5071500;28;20475;-82
2024/02/01 08:15:32;;;;;;;11.60;3.30;;;6.30;99.90;;;;;;5075445;28;20550;-83
2024/02/01 08:18:00;;;;;;;58.30;22.97;;;6.30;99.90;;;;;;5081210;28;20513;-85
2024/02/01 08:20:28;;;;;;;22.23;6.90;;;6.30;99.90;;;;;;5082015;28;20461;-82
2024/02/01 08:22:55;;;;;;;14.33;4.40;;;6.40;99.90;;;;;;5085926;28;20447;-83
2024/02/01 08:25:24;;;;;;;18.20;4.13;;;6.30;99.90;;;;;;5077471;28;20449;-82
2024/02/01 08:27:54;;;;;;;12.97;3.20;;;6.30;99.90;;;;;;5081921;28;20461;-83
2024/02/01 08:30:21;;;;;;;13.37;3.70;;;6.30;99.90;;;;;;5081681;28;20481;-82
2024/02/01 08:32:48;;;;;;;12.33;3.13;;;6.30;99.90;;;;;;5085877;28;20495;-84
2024/02/01 08:35:17;;;;;;;15.00;3.80;;;6.30;99.90;;;;;;5094169;28;20525;-82
2024/02/01 08:37:47;;;;;;;13.53;4.00;;;6.30;99.90;;;;;;5085856;28;20450;-80
2024/02/01 08:40:18;;;;;;;15.93;3.87;;;6.40;99.90;;;;;;5081018;28;20469;-81
2024/02/01 08:42:45;;;;;;;8.50;3.43;;;6.30;99.90;;;;;;5075640;28;20469;-82
2024/02/01 08:45:13;;;;;;;10.70;2.90;;;6.40;99.90;;;;;;5070030;28;20480;-81
2024/02/01 08:47:40;;;;;;;19.30;3.60;;;6.40;99.90;;;;;;5076356;28;20444;-82
2024/02/01 08:50:09;;;;;;;15.20;2.83;;;6.40;99.90;;;;;;5068937;28;20573;-83
2024/02/01 08:52:44;;;;;;;16.70;3.60;;;6.40;99.90;;;;;;5073048;28;20538;-82
2024/02/01 08:55:13;;;;;;;12.87;3.30;;;6.40;99.90;;;;;;5081438;28;20475;-82
2024/02/01 08:57:41;;;;;;;12.90;3.87;;;6.50;99.90;;;;;;5078364;28;20461;-78
2024/02/01 09:00:25;;;;;;;14.70;4.10;;;6.50;99.90;;;;;;5082184;28;20834;-86
2024/02/01 09:03:04;;;;;;;17.03;3.13;;;6.60;99.90;;;;;;5077050;28;20457;-83
2024/02/01 09:05:35;;;;;;;10.13;3.10;;;6.60;99.90;;;;;;5086505;28;20455;-83
2024/02/01 09:08:05;;;;;;;25.70;4.97;;;6.60;99.90;;;;;;5086621;28;20577;-83
2024/02/01 09:10:32;;;;;;;65.47;26.40;;;6.70;99.90;;;;;;5085431;28;20517;-82
2024/02/01 09:13:00;;;;;;;23.17;6.03;;;6.70;99.90;;;;;;5077955;28;20459;-84
2024/02/01 09:15:27;;;;;;;19.67;4.80;;;6.80;99.90;;;;;;5085215;28;20545;-82
2024/02/01 09:17:56;;;;;;;17.43;5.70;;;6.90;99.90;;;;;;5084932;28;20454;-82
2024/02/01 09:20:25;;;;;;;14.30;4.83;;;6.90;99.90;;;;;;5087146;28;20540;-85
2024/02/01 09:22:53;;;;;;;15.10;4.00;;;7.00;99.90;;;;;;5087471;28;20460;-84
2024/02/01 09:25:23;;;;;;;20.73;5.20;;;7.10;99.90;;;;;;5093853;28;20477;-87
2024/02/01 09:27:50;;;;;;;16.83;4.17;;;7.00;99.90;;;;;;5097357;28;20454;-88
2024/02/01 09:30:19;;;;;;;11.63;3.87;;;7.00;99.90;;;;;;5077320;28;20522;-82
2024/02/01 09:32:49;;;;;;;16.53;3.83;;;7.10;99.90;;;;;;5083441;28;20542;-84
2024/02/01 09:35:17;;;;;;;44.60;16.63;;;7.20;99.90;;;;;;5082633;28;20499;-86
2024/02/01 09:37:44;;;;;;;24.27;7.87;;;7.30;99.90;;;;;;5082177;28;20466;-82
2024/02/01 09:40:12;;;;;;;20.33;4.07;;;7.40;99.90;;;;;;5074288;28;20488;-84
2024/02/01 09:42:42;;;;;;;12.00;3.40;;;7.40;99.90;;;;;;5081738;28;20524;-82
2024/02/01 09:45:10;;;;;;;9.13;2.70;;;7.50;99.90;;;;;;5073808;28;20496;-82
2024/02/01 09:47:44;;;;;;;15.03;4.07;;;7.50;99.90;;;;;;5080077;28;20460;-80
2024/02/01 09:50:14;;;;;;;17.27;3.97;;;7.50;99.90;;;;;;5079837;28;20459;-82
2024/02/01 09:52:49;;;;;;;10.90;3.50;;;7.70;99.90;;;;;;5069104;28;21178;-82
2024/02/01 09:55:23;;;;;;;18.27;4.00;;;7.80;99.90;;;;;;5076696;28;20548;-85
2024/02/01 09:57:56;;;;;;;15.37;2.67;;;7.80;99.90;;;;;;5066819;28;21003;-82
2024/02/01 10:00:25;;;;;;;15.00;3.00;;;8.00;99.90;;;;;;5072491;28;20475;-82
2024/02/01 10:02:59;;;;;;;13.90;4.30;;;8.10;99.90;;;;;;5070414;28;20476;-84
2024/02/01 10:05:28;;;;;;;15.30;3.43;;;8.30;99.90;;;;;;5071234;28;20494;-84
2024/02/01 10:07:56;;;;;;;9.80;2.90;;;8.40;99.90;;;;;;5076464;28;20476;-82
2024/02/01 10:10:23;;;;;;;14.10;4.70;;;8.40;99.90;;;;;;5073746;28;20465;-81
2024/02/01 10:12:58;;;;;;;12.63;3.50;;;8.50;99.90;;;;;;5082311;28;20461;-85
2024/02/01 10:15:30;;;;;;;17.27;4.43;;;8.60;99.90;;;;;;5072615;28;20494;-81
2024/02/01 10:18:01;;;;;;;14.57;3.10;;;8.70;99.90;;;;;;5074764;28;20445;-84
2024/02/01 10:20:35;;;;;;;13.13;2.30;;;8.60;99.90;;;;;;5069567;28;20549;-80
2024/02/01 10:23:03;;;;;;;16.80;4.53;;;8.60;99.90;;;;;;5076183;28;20441;-83
2024/02/01 10:25:38;;;;;;;14.60;3.33;;;8.60;99.90;;;;;;5074081;28;20999;-82
2024/02/01 10:28:14;;;;;;;9.30;2.90;;;8.60;99.90;;;;;;5084635;28;20477;-84
2024/02/01 10:30:42;;;;;;;19.03;3.30;;;8.60;99.90;;;;;;5080791;28;20437;-81
2024/02/01 10:33:10;;;;;;;13.60;3.37;;;8.60;99.90;;;;;;5084209;28;20458;-81
2024/02/01 10:35:38;;;;;;;12.83;3.07;;;8.50;99.90;;;;;;5081006;28;20495;-80
2024/02/01 10:38:12;;;;;;;19.67;3.23;;;8.60;99.90;;;;;;5083076;28;20481;-81
2024/02/01 10:40:59;;;;;;;19.10;3.87;;;8.70;99.90;;;;;;5083982;28;20548;-82
2024/02/01 10:43:29;;;;;;;15.20;4.30;;;8.80;99.90;;;;;;5083438;28;20459;-80
2024/02/01 10:46:06;;;;;;;11.33;3.73;;;8.90;99.90;;;;;;5081760;28;20449;-82
2024/02/01 10:48:36;;;;;;;10.20;2.83;;;9.00;99.90;;;;;;5082304;28;20568;-83
2024/02/01 10:51:11;;;;;;;14.53;3.57;;;9.20;99.90;;;;;;5069951;28;20453;-80
2024/02/01 10:53:48;;;;;;;17.87;3.83;;;9.70;99.90;;;;;;5076352;28;20443;-83
2024/02/01 10:56:16;;;;;;;12.10;3.40;;;10.50;99.90;;;;;;5059989;28;20507;-81
2024/02/01 10:58:54;;;;;;;21.70;4.13;;;11.10;99.90;;;;;;5070778;28;20577;-80
2024/02/01 11:01:24;;;;;;;16.20;3.17;;;11.30;99.90;;;;;;5078694;28;20443;-81
2024/02/01 11:03:53;;;;;;;16.23;3.13;;;11.90;99.90;;;;;;5086993;28;20452;-83
2024/02/01 11:06:27;;;;;;;13.63;2.90;;;12.10;99.90;;;;;;5084867;28;20456;-82
2024/02/01 11:08:57;;;;;;;13.23;3.17;;;12.50;99.90;;;;;;5084142;28;20488;-84
2024/02/01 11:14:19;;;;;;;11.43;4.57;;;12.00;99.90;;;;;;5077958;28;20981;-82
2024/02/01 11:16:49;;;;;;;16.40;4.37;;;11.70;99.90;;;;;;5065012;28;20463;-81
2024/02/01 11:19:22;;;;;;;12.60;3.03;;;11.80;99.90;;;;;;5083417;28;20567;-81
2024/02/01 11:21:51;;;;;;;13.23;3.50;;;11.90;99.90;;;;;;5078590;28;20501;-80
2024/02/01 11:24:30;;;;;;;18.33;3.33;;;11.80;99.90;;;;;;5082993;28;20528;-81
2024/02/01 11:26:58;;;;;;;23.47;3.80;;;11.50;99.90;;;;;;5084156;28;20452;-83
2024/02/01 11:32:19;;;;;;;9.00;3.20;;;12.20;99.90;;;;;;5083236;28;20459;-81
2024/02/01 11:34:52;;;;;;;11.57;3.90;;;14.20;99.90;;;;;;5074052;28;20557;-87
2024/02/01 11:37:27;;;;;;;11.10;4.37;;;16.00;99.90;;;;;;5083637;28;20494;-85
2024/02/01 11:39:54;;;;;;;7.00;2.47;;;17.80;99.10;;;;;;5072257;28;20485;-82
2024/02/01 11:42:28;;;;;;;8.60;2.60;;;18.90;95.30;;;;;;5079413;28;20885;-83
2024/02/01 11:45:06;;;;;;;11.13;2.80;;;20.70;90.70;;;;;;5081392;28;20453;-81
2024/02/01 11:47:39;;;;;;;10.50;3.00;;;21.20;83.20;;;;;;5081648;28;20497;-81
2024/02/01 11:50:09;;;;;;;16.87;3.50;;;20.70;80.50;;;;;;5082756;28;20488;-81
2024/02/01 11:52:43;;;;;;;10.77;3.80;;;21.00;80.10;;;;;;5068015;28;20466;-79
2024/02/01 11:55:14;;;;;;;13.53;2.97;;;21.00;79.40;;;;;;5066110;28;20556;-82
2024/02/01 11:57:47;;;;;;;11.30;3.27;;;21.30;74.60;;;;;;5073320;28;20475;-81
2024/02/01 12:00:37;;;;;;;12.43;4.20;;;22.30;74.20;;;;;;5078899;28;20454;-81
2024/02/01 12:03:12;;;;;;;9.27;3.83;;;23.50;73.00;;;;;;5074232;28;20513;-82
2024/02/01 12:05:44;;;;;;;12.40;3.87;;;24.80;70.00;;;;;;5082847;28;20451;-82
2024/02/01 12:08:14;;;;;;;7.73;3.37;;;24.80;68.40;;;;;;5079135;28;20471;-82
2024/02/01 12:10:45;;;;;;;10.63;3.67;;;26.00;63.40;;;;;;5076180;28;20475;-83
2024/02/01 12:13:19;;;;;;;7.30;2.70;;;25.80;61.00;;;;;;5088136;28;20458;-81
2024/02/01 12:15:54;;;;;;;9.43;3.30;;;26.20;59.80;;;;;;5086248;28;20489;-86
2024/02/01 12:18:33;;;;;;;11.37;3.97;;;26.40;58.20;;;;;;5091519;28;20463;-85
2024/02/01 12:21:00;;;;;;;9.47;2.97;;;25.70;57.80;;;;;;5087879;28;20455;-81
2024/02/01 12:23:34;;;;;;;7.63;3.27;;;25.30;57.80;;;;;;5094394;28;20469;-81
2024/02/01 12:26:03;;;;;;;9.90;3.40;;;26.10;57.50;;;;;;5085453;28;20494;-83
2024/02/01 12:28:32;;;;;;;11.50;5.03;;;27.20;55.80;;;;;;5072766;28;20479;-85
2024/02/01 12:31:04;;;;;;;7.70;2.90;;;27.00;55.10;;;;;;5072549;28;20448;-83
2024/02/01 12:33:32;;;;;;;9.10;3.13;;;25.70;54.50;;;;;;5077976;28;20518;-83
2024/02/01 12:36:01;;;;;;;11.60;3.70;;;23.50;55.90;;;;;;5079605;28;20982;-84
2024/02/01 12:38:40;;;;;;;10.83;3.50;;;21.50;56.80;;;;;;5082117;28;20503;-83
2024/02/01 12:41:09;;;;;;;9.07;3.80;;;20.50;59.30;;;;;;5080109;28;20455;-83
2024/02/01 12:43:36;;;;;;;12.80;3.27;;;19.00;60.90;;;;;;5083720;28;20455;-84
2024/02/01 12:46:05;;;;;;;9.67;3.67;;;17.90;62.80;;;;;;5086434;28;20510;-84
2024/02/01 12:48:32;;;;;;;12.47;4.10;;;17.50;66.50;;;;;;5086133;28;20483;-84
2024/02/01 12:50:59;;;;;;;9.20;2.90;;;17.30;66.00;;;;;;5090534;28;20453;-83
2024/02/01 12:53:26;;;;;;;13.20;4.27;;;17.40;66.10;;;;;;5085184;28;20553;-83
2024/02/01 12:55:53;;;;;;;11.33;3.10;;;17.50;67.10;;;;;;5084969;28;20470;-85
2024/02/01 12:58:20;;;;;;;14.40;3.13;;;17.80;65.80;;;;;;5087237;28;20476;-85
2024/02/01 13:00:46;;;;;;;13.97;5.63;;;18.10;65.60;;;;;;5082720;28;20504;-84
2024/02/01 13:03:15;;;;;;;10.57;2.53;;;18.80;67.40;;;;;;5093492;28;20449;-82
2024/02/01 13:05:44;;;;;;;16.17;8.87;;;18.90;62.20;;;;;;5092149;28;20529;-86
2024/02/01 13:08:14;;;;;;;9.20;3.50;;;18.40;60.50;;;;;;5091566;28;20868;-84
2024/02/01 13:10:44;;;;;;;7.20;2.40;;;17.80;61.50;;;;;;5092232;28;20479;-84
2024/02/01 13:13:11;;;;;;;8.40;3.63;;;18.10;63.30;;;;;;5091558;28;20458;-86
2024/02/01 13:15:38;;;;;;;14.03;3.10;;;17.90;64.00;;;;;;5090647;28;20449;-83
2024/02/01 13:18:11;;;;;;;13.40;2.83;;;17.40;63.50;;;;;;5085403;28;20504;-83
2024/02/01 13:20:40;;;;;;;9.93;3.07;;;18.00;65.10;;;;;;5085887;28;20456;-83
2024/02/01 13:23:09;;;;;;;15.30;4.27;;;17.70;63.90;;;;;;5082389;28;20490;-83
2024/02/01 13:25:38;;;;;;;7.77;3.00;;;17.00;64.20;;;;;;5091053;28;20483;-84
2024/02/01 13:28:08;;;;;;;11.37;3.23;;;16.90;64.90;;;;;;5085362;28;20507;-84
2024/02/01 13:30:35;;;;;;;17.40;3.93;;;16.50;65.80;;;;;;5088406;28;20469;-84
2024/02/01 13:33:04;;;;;;;15.63;3.23;;;15.50;64.80;;;;;;5085748;28;20530;-83
2024/02/01 13:35:32;;;;;;;6.80;2.33;;;14.80;67.00;;;;;;5085574;28;20455;-83
2024/02/01 13:38:05;;;;;;;11.63;2.40;;;14.60;67.60;;;;;;5084264;28;20469;-83